createdAt,value
2023-01-30T00:02:24.588Z,97361.13
2023-01-30T00:06:26.886Z,97378.56
2023-01-30T00:10:29.547Z,97376.44
2023-01-30T00:14:29.701Z,97366.69
2023-01-30T00:18:29.960Z,97360.81
2023-01-30T00:22:33.153Z,97343.66
2023-01-30T00:26:35.974Z,97314.41
2023-01-30T00:30:36.132Z,97318.75
2023-01-30T00:34:36.402Z,97319.31
2023-01-30T00:38:36.976Z,97322.16
2023-01-30T00:42:55.107Z,97321.00
2023-01-30T00:47:10.437Z,97302.66
2023-01-30T00:51:10.560Z,97311.06
2023-01-30T00:55:12.230Z,97308.09
2023-01-30T00:59:14.880Z,97321.00
2023-01-30T01:03:15.044Z,97338.47
2023-01-30T01:07:17.269Z,97353.13
2023-01-30T01:11:24.658Z,97361.41
2023-01-30T01:15:29.494Z,97336.50
2023-01-30T01:19:29.727Z,97350.97
2023-01-30T01:23:29.907Z,97350.66
2023-01-30T01:27:31.324Z,97341.13
2023-01-30T01:31:34.623Z,97337.75
2023-01-30T01:35:34.829Z,97334.84
2023-01-30T01:39:47.103Z,97334.72
2023-01-30T01:44:06.993Z,97329.03
2023-01-30T01:48:20.741Z,97318.28
2023-01-30T01:52:21.611Z,97278.47
2023-01-30T01:56:24.204Z,97271.00
2023-01-30T02:00:25.113Z,97282.06
2023-01-30T02:04:43.787Z,97285.34
2023-01-30T02:08:51.767Z,97249.31
2023-01-30T02:12:53.762Z,97280.81
2023-01-30T02:16:55.185Z,97292.22
2023-01-30T02:21:30.751Z,97260.94
2023-01-30T02:26:21.920Z,97214.41
2023-01-30T02:31:10.907Z,97254.97
2023-01-30T02:35:26.453Z,97232.66
2023-01-30T02:39:44.225Z,97232.22
2023-01-30T02:43:58.933Z,97210.19
2023-01-30T02:48:06.579Z,97176.47
2023-01-30T02:52:10.990Z,97154.13
2023-01-30T02:56:11.093Z,97173.38
2023-01-30T03:00:14.085Z,97211.84
2023-01-30T03:04:50.094Z,97210.69
2023-01-30T03:09:09.320Z,97190.63
2023-01-30T03:13:22.419Z,97190.16
2023-01-30T03:17:27.557Z,97188.19
2023-01-30T03:21:30.543Z,97176.47
2023-01-30T03:25:31.597Z,97180.06
2023-01-30T03:29:31.748Z,97160.19
2023-01-30T03:33:31.859Z,97155.63
2023-01-30T03:37:35.013Z,97143.56
2023-01-30T03:41:35.171Z,97140.94
2023-01-30T03:45:36.415Z,97103.72
2023-01-30T03:49:36.587Z,97127.84
2023-01-30T03:53:39.382Z,97113.75
2023-01-30T03:57:39.747Z,97107.19
2023-01-30T04:01:40.317Z,97098.34
2023-01-30T04:05:41.381Z,97086.69
2023-01-30T04:09:44.487Z,97063.59
2023-01-30T04:13:45.239Z,97089.69
2023-01-30T04:17:47.919Z,97072.50
2023-01-30T04:22:06.879Z,97066.78
2023-01-30T04:26:11.091Z,97087.34
2023-01-30T04:30:14.827Z,97073.97
2023-01-30T04:34:15.800Z,97084.59
2023-01-30T04:38:16.391Z,97084.41
2023-01-30T04:42:19.195Z,97088.75
2023-01-30T04:46:38.038Z,97076.56
2023-01-30T04:50:38.968Z,97079.44
2023-01-30T04:54:40.134Z,97085.69
2023-01-30T04:58:43.008Z,97090.56
2023-01-30T05:02:43.721Z,97076.03
2023-01-30T05:06:44.133Z,97093.34
2023-01-30T05:10:44.382Z,97074.69
2023-01-30T05:14:46.995Z,97078.88
2023-01-30T05:18:47.484Z,97087.88
2023-01-30T05:22:47.701Z,97048.31
2023-01-30T05:26:47.746Z,97053.06
2023-01-30T05:30:50.417Z,97035.53
2023-01-30T05:34:52.371Z,97009.88
2023-01-30T05:38:52.565Z,97017.63
2023-01-30T05:42:52.567Z,97021.59
2023-01-30T05:46:55.321Z,97019.28
2023-01-30T05:50:55.844Z,97016.84
2023-01-30T05:54:56.258Z,97015.44
2023-01-30T05:58:58.285Z,97011.13
2023-01-30T06:03:01.141Z,96995.81
2023-01-30T06:07:01.323Z,97004.53
2023-01-30T06:11:04.020Z,97005.94
2023-01-30T06:15:04.358Z,97005.38
2023-01-30T06:19:07.125Z,97015.94
2023-01-30T06:23:07.209Z,97011.97
2023-01-30T06:27:07.448Z,97010.00
2023-01-30T06:31:10.423Z,97005.09
2023-01-30T06:35:13.672Z,96990.59
2023-01-30T06:39:14.057Z,97027.75
2023-01-30T06:43:14.407Z,97009.06
2023-01-30T06:47:14.488Z,97028.50
2023-01-30T06:51:17.260Z,97033.41
2023-01-30T06:55:21.024Z,97027.41
2023-01-30T06:59:21.300Z,97031.25
2023-01-30T07:03:22.548Z,97030.31
2023-01-30T07:07:25.239Z,97013.25
2023-01-30T07:11:25.312Z,96999.63
2023-01-30T07:15:25.417Z,97009.97
2023-01-30T07:19:25.806Z,97021.06
2023-01-30T07:23:28.598Z,96999.00
2023-01-30T07:27:29.105Z,97016.38
2023-01-30T07:31:29.683Z,96977.38
2023-01-30T07:35:36.846Z,96994.66
2023-01-30T07:39:39.686Z,97004.31
2023-01-30T07:43:40.016Z,96981.06
2023-01-30T07:47:40.187Z,96959.50
2023-01-30T07:51:40.353Z,96976.09
2023-01-30T07:55:43.754Z,96980.97
2023-01-30T07:59:56.627Z,96979.22
2023-01-30T08:04:34.339Z,96834.56
2023-01-30T08:09:06.751Z,96887.75
2023-01-30T08:13:21.272Z,96956.75
2023-01-30T08:17:40.680Z,96948.28
2023-01-30T08:21:47.440Z,96965.03
2023-01-30T08:25:47.626Z,96928.91
2023-01-30T08:29:58.434Z,96940.22
2023-01-30T08:34:01.640Z,96924.66
2023-01-30T08:38:03.567Z,96895.59
2023-01-30T08:42:03.994Z,96947.09
2023-01-30T08:46:07.433Z,96921.97
2023-01-30T08:50:08.714Z,96913.66
2023-01-30T08:54:10.276Z,96903.13
2023-01-30T08:58:10.830Z,96882.50
2023-01-30T09:02:16.542Z,96844.97
2023-01-30T09:06:16.906Z,96898.59
2023-01-30T09:10:17.984Z,96898.53
2023-01-30T09:14:19.947Z,96902.22
2023-01-30T09:18:22.731Z,96898.09
2023-01-30T09:22:22.810Z,96895.19
2023-01-30T09:26:22.893Z,96886.47
2023-01-30T09:30:23.342Z,96873.09
2023-01-30T09:34:28.594Z,96882.03
2023-01-30T09:38:28.959Z,96863.28
2023-01-30T09:43:11.286Z,96864.53
2023-01-30T09:47:16.913Z,96893.41
2023-01-30T09:51:46.232Z,96878.97
2023-01-30T09:55:46.885Z,96874.28
2023-01-30T10:00:00.621Z,96823.34
2023-01-30T10:04:16.421Z,96840.09
2023-01-30T10:08:48.786Z,96857.69
2023-01-30T10:13:05.360Z,96848.13
2023-01-30T10:17:32.728Z,96846.22
2023-01-30T10:21:50.353Z,96830.53
2023-01-30T10:25:58.546Z,96828.44
2023-01-30T10:30:04.073Z,96829.94
2023-01-30T10:34:09.249Z,96806.97
2023-01-30T10:38:22.765Z,96814.63
2023-01-30T10:42:34.883Z,96835.03
2023-01-30T10:46:55.765Z,96832.88
2023-01-30T10:51:01.901Z,96813.94
2023-01-30T10:55:18.127Z,96843.31
2023-01-30T10:59:38.635Z,96837.00
2023-01-30T11:03:48.066Z,96853.75
2023-01-30T11:07:52.003Z,96852.41
2023-01-30T11:11:55.705Z,96797.13
2023-01-30T11:16:02.468Z,96803.91
2023-01-30T11:20:14.711Z,96802.69
2023-01-30T11:24:21.882Z,96821.66
2023-01-30T11:28:22.243Z,96811.19
2023-01-30T11:32:30.747Z,96828.88
2023-01-30T11:36:39.052Z,96826.03
2023-01-30T11:40:42.740Z,96828.56
2023-01-30T11:44:44.957Z,96820.88
2023-01-30T11:49:02.430Z,96801.34
2023-01-30T11:53:30.959Z,96833.41
2023-01-30T11:57:31.481Z,96814.72
2023-01-30T12:01:35.248Z,96799.38
2023-01-30T12:05:42.911Z,96809.97
2023-01-30T12:09:43.096Z,96807.94
2023-01-30T12:13:48.413Z,96817.25
2023-01-30T12:17:59.153Z,96800.94
2023-01-30T12:22:12.597Z,96768.16
2023-01-30T12:26:23.064Z,96791.47
2023-01-30T12:30:42.789Z,96782.44
2023-01-30T12:34:45.651Z,96763.69
2023-01-30T12:39:15.653Z,96791.41
2023-01-30T12:43:49.042Z,96776.69
2023-01-30T12:48:16.964Z,96785.22
2023-01-30T12:53:01.845Z,96762.03
2023-01-30T12:57:19.981Z,96784.31
2023-01-30T13:01:32.931Z,96743.09
2023-01-30T13:05:44.740Z,96765.41
2023-01-30T13:10:14.057Z,96748.47
2023-01-30T13:14:33.661Z,96759.94
2023-01-30T13:18:43.309Z,96765.53
2023-01-30T13:22:52.437Z,96728.88
2023-01-30T13:26:55.666Z,96765.00
2023-01-30T13:30:59.916Z,96772.09
2023-01-30T13:35:03.724Z,96758.50
2023-01-30T13:39:13.530Z,96790.69
2023-01-30T13:43:24.048Z,96796.78
2023-01-30T13:47:51.969Z,96779.28
2023-01-30T13:52:02.662Z,96753.97
2023-01-30T13:56:39.830Z,96795.50
2023-01-30T14:00:39.309Z,96812.66
2023-01-30T14:04:57.164Z,96812.00
2023-01-30T14:09:25.270Z,96806.53
2023-01-30T14:13:32.132Z,96804.59
2023-01-30T14:17:33.406Z,96804.22
2023-01-30T14:21:36.766Z,96815.13
2023-01-30T14:25:58.497Z,96833.47
2023-01-30T14:29:59.615Z,96788.84
2023-01-30T14:33:59.903Z,96825.25
2023-01-30T14:38:20.786Z,96824.72
2023-01-30T14:42:27.339Z,96843.66
2023-01-30T14:46:54.527Z,96853.25
2023-01-30T14:51:20.430Z,96797.94
2023-01-30T14:55:29.702Z,96839.91
2023-01-30T14:59:35.108Z,96821.00
2023-01-30T15:03:41.258Z,96813.75
2023-01-30T15:07:47.219Z,96842.41
2023-01-30T15:12:08.729Z,96850.81
2023-01-30T15:16:40.255Z,96840.19
2023-01-30T15:21:02.520Z,96842.56
2023-01-30T15:25:40.483Z,96862.53
2023-01-30T15:30:20.461Z,96881.13
2023-01-30T15:34:24.099Z,96900.59
2023-01-30T15:38:32.347Z,96911.09
2023-01-30T15:42:32.504Z,96906.31
2023-01-30T15:46:50.266Z,96915.00
2023-01-30T15:50:57.983Z,96929.16
2023-01-30T15:55:03.109Z,96939.66
2023-01-30T15:59:05.832Z,96936.53
2023-01-30T16:03:23.456Z,96946.81
2023-01-30T16:07:29.335Z,96951.06
2023-01-30T16:11:39.390Z,96950.25
2023-01-30T16:15:47.436Z,96939.00
2023-01-30T16:19:50.210Z,96942.63
2023-01-30T16:24:00.387Z,96954.88
2023-01-30T16:28:00.509Z,96972.22
2023-01-30T16:32:01.124Z,96987.31
2023-01-30T16:36:04.684Z,96978.78
2023-01-30T16:40:19.199Z,96984.69
2023-01-30T16:44:25.359Z,96974.47
2023-01-30T16:48:33.936Z,96975.44
2023-01-30T16:52:41.361Z,96997.56
2023-01-30T16:56:48.037Z,96994.69
2023-01-30T17:00:53.840Z,97008.50
2023-01-30T17:04:54.027Z,97042.59
2023-01-30T17:08:58.986Z,97016.53
2023-01-30T17:12:59.722Z,97018.41
2023-01-30T17:17:07.672Z,97021.22
2023-01-30T17:21:08.235Z,97024.59
2023-01-30T17:25:24.942Z,97029.00
2023-01-30T17:29:41.296Z,97027.31
2023-01-30T17:33:42.362Z,97034.19
2023-01-30T17:37:45.280Z,97033.38
2023-01-30T17:41:48.709Z,97045.13
2023-01-30T17:45:48.786Z,97039.72
2023-01-30T17:49:48.843Z,97063.75
2023-01-30T17:53:48.875Z,97067.75
2023-01-30T17:57:53.152Z,97065.47
2023-01-30T18:01:54.995Z,97068.66
2023-01-30T18:05:55.125Z,97073.34
2023-01-30T18:09:55.455Z,97106.41
2023-01-30T18:13:58.112Z,97104.94
2023-01-30T18:17:58.631Z,97111.00
2023-01-30T18:21:58.869Z,97127.53
2023-01-30T18:25:58.973Z,97116.81
2023-01-30T18:30:01.650Z,97125.16
2023-01-30T18:34:02.006Z,97131.31
2023-01-30T18:38:03.034Z,97121.56
2023-01-30T18:42:04.253Z,97116.19
2023-01-30T18:46:13.265Z,97139.28
2023-01-30T18:50:14.333Z,97151.03
2023-01-30T18:54:14.624Z,97139.38
2023-01-30T18:58:14.688Z,97148.88
2023-01-30T19:02:17.750Z,97146.97
2023-01-30T19:06:20.414Z,97160.19
2023-01-30T19:10:21.346Z,97138.69
2023-01-30T19:14:21.861Z,97144.75
2023-01-30T19:18:24.535Z,97164.28
2023-01-30T19:22:24.932Z,97174.22
2023-01-30T19:26:26.522Z,97176.63
2023-01-30T19:30:26.654Z,97204.03
2023-01-30T19:34:29.395Z,97196.47
2023-01-30T19:38:30.479Z,97187.75
2023-01-30T19:42:30.619Z,97231.81
2023-01-30T19:46:31.479Z,97198.63
2023-01-30T19:50:34.231Z,97220.09
2023-01-30T19:54:34.528Z,97215.06
2023-01-30T19:58:34.759Z,97220.50
2023-01-30T20:02:34.855Z,97202.69
2023-01-30T20:06:39.781Z,97224.94
2023-01-30T20:10:41.806Z,97244.09
2023-01-30T20:14:41.917Z,97238.56
2023-01-30T20:18:43.237Z,97234.03
2023-01-30T20:22:46.434Z,97247.78
2023-01-30T20:26:48.502Z,97240.28
2023-01-30T20:30:49.050Z,97247.44
2023-01-30T20:34:50.065Z,97256.47
2023-01-30T20:38:53.768Z,97200.84
2023-01-30T20:42:53.804Z,97258.44
2023-01-30T20:46:54.955Z,97259.44
2023-01-30T20:50:55.332Z,97264.31
2023-01-30T20:54:58.047Z,97275.59
2023-01-30T20:58:58.855Z,97253.94
2023-01-30T21:02:59.190Z,97272.09
2023-01-30T21:06:59.289Z,97258.09
2023-01-30T21:11:08.280Z,97280.69
2023-01-30T21:15:10.471Z,97277.88
2023-01-30T21:19:15.271Z,97287.75
2023-01-30T21:23:15.495Z,97297.44
2023-01-30T21:27:19.616Z,97245.06
2023-01-30T21:31:23.577Z,97290.47
2023-01-30T21:35:23.696Z,97274.53
2023-01-30T21:39:36.658Z,97289.81
2023-01-30T21:43:40.135Z,97306.75
2023-01-30T21:47:40.290Z,97308.75
2023-01-30T21:51:43.072Z,97312.34
2023-01-30T21:55:43.156Z,97321.38
2023-01-30T21:59:46.087Z,97319.41
2023-01-30T22:03:46.382Z,97315.88
2023-01-30T22:07:46.471Z,97314.88
2023-01-30T22:11:46.722Z,97330.25
2023-01-30T22:15:49.405Z,97333.34
2023-01-30T22:19:49.495Z,97328.91
2023-01-30T22:23:53.833Z,97331.44
2023-01-30T22:27:54.343Z,97314.69
2023-01-30T22:31:57.225Z,97313.94
2023-01-30T22:35:57.566Z,97357.56
2023-01-30T22:39:57.619Z,97360.38
2023-01-30T22:43:59.811Z,97361.28
2023-01-30T22:48:02.412Z,97354.31
2023-01-30T22:52:02.462Z,97349.44
2023-01-30T22:56:07.711Z,97375.31
2023-01-30T23:00:10.390Z,97366.34
2023-01-30T23:04:16.182Z,97355.59
2023-01-30T23:08:16.164Z,97373.41
2023-01-30T23:12:28.470Z,97370.34
2023-01-30T23:16:30.787Z,97352.88
2023-01-30T23:20:33.491Z,97360.84
2023-01-30T23:24:33.560Z,97346.91
2023-01-30T23:28:33.866Z,97336.41
2023-01-30T23:32:33.878Z,97363.84
2023-01-30T23:36:37.689Z,97367.81
2023-01-30T23:40:37.702Z,97365.53
2023-01-30T23:44:37.748Z,97369.06
2023-01-30T23:48:37.692Z,97363.56
2023-01-30T23:52:40.283Z,97337.13
2023-01-30T23:56:43.291Z,97362.91
